Time;durP1;ratioP1;P1;durP2;ratioP2;P2;SDS_P1;SDS_P2;PMS_P1;PMS_P2;Temp;Humidity;BMP_temperature;BMP_pressure;BME280_temperature;BME280_humidity;BME280_pressure;Samples;Min_cycle;Max_cycle;Signal;HPM_P1;HPM_P2
2023/03/31 05:01:12;;;;;;;;;5.33;5.33;;;;;;;;5638700;22;46129;-59
2023/03/31 05:03:37;;;;;;;;;5.33;4.00;;;;;;;;5018027;28;45389;-60
2023/03/31 05:06:03;;;;;;;;;6.00;4.00;;;;;;;;5012938;28;45387;-61
2023/03/31 05:08:28;;;;;;;;;7.67;3.00;;;;;;;;5020584;28;45339;-61
2023/03/31 05:10:53;;;;;;;;;10.33;5.33;;;;;;;;4995049;28;47311;-60
2023/03/31 05:13:18;;;;;;;;;10.67;6.00;;;;;;;;5015920;28;45269;-60
2023/03/31 05:15:49;;;;;;;;;11.67;6.67;;;;;;;;5003065;28;45400;-58
2023/03/31 05:18:14;;;;;;;;;6.67;5.33;;;;;;;;5018036;28;46340;-59
2023/03/31 05:20:40;;;;;;;;;10.00;5.00;;;;;;;;5011300;28;46285;-60
2023/03/31 05:23:05;;;;;;;;;6.33;5.00;;;;;;;;5015559;28;45499;-61
2023/03/31 05:25:32;;;;;;;;;5.00;4.67;;;;;;;;5016532;28;45318;-61
2023/03/31 05:27:58;;;;;;;;;10.33;5.00;;;;;;;;5019872;28;45359;-60
2023/03/31 05:30:25;;;;;;;;;6.33;5.67;;;;;;;;5019438;28;46142;-61
2023/03/31 05:32:50;;;;;;;;;8.00;5.00;;;;;;;;5018874;28;45328;-61
2023/03/31 05:35:15;;;;;;;;;11.33;5.67;;;;;;;;5013122;28;45794;-61
2023/03/31 05:37:41;;;;;;;;;7.33;2.67;;;;;;;;5009250;28;45534;-61
2023/03/31 05:40:08;;;;;;;;;10.33;6.00;;;;;;;;5010313;28;45804;-59
2023/03/31 05:42:33;;;;;;;;;14.33;5.00;;;;;;;;5001368;28;45439;-60
2023/03/31 05:44:58;;;;;;;;;14.33;4.67;;;;;;;;5014049;28;45205;-60
2023/03/31 05:47:24;;;;;;;;;14.33;6.00;;;;;;;;5005218;28;45263;-61
2023/03/31 05:49:49;;;;;;;;;7.00;5.00;;;;;;;;5005926;28;46775;-60
2023/03/31 05:52:15;;;;;;;;;13.00;5.00;;;;;;;;5004566;28;45486;-60
2023/03/31 05:54:41;;;;;;;;;8.67;5.00;;;;;;;;5001375;28;45396;-60
2023/03/31 05:57:07;;;;;;;;;13.33;9.00;;;;;;;;5016970;28;45550;-60
2023/03/31 05:59:34;;;;;;;;;6.00;6.00;;;;;;;;5018735;28;45347;-60
2023/03/31 06:02:00;;;;;;;;;8.00;5.00;;;;;;;;5018689;28;45571;-62
2023/03/31 06:04:25;;;;;;;;;11.67;4.67;;;;;;;;5011992;28;45659;-60
2023/03/31 06:06:50;;;;;;;;;7.33;5.67;;;;;;;;5016852;28;45242;-58
2023/03/31 06:09:16;;;;;;;;;9.67;6.00;;;;;;;;5015799;28;46633;-59
2023/03/31 06:11:41;;;;;;;;;8.00;5.67;;;;;;;;5019013;28;45175;-58
2023/03/31 06:14:07;;;;;;;;;4.33;3.33;;;;;;;;4993328;28;45388;-58
2023/03/31 06:16:32;;;;;;;;;8.67;6.00;;;;;;;;5001464;28;45355;-58
2023/03/31 06:18:57;;;;;;;;;11.33;6.67;;;;;;;;5019058;28;46254;-58
2023/03/31 06:21:22;;;;;;;;;12.67;7.00;;;;;;;;5018185;28;45360;-59
2023/03/31 06:23:48;;;;;;;;;6.67;5.33;;;;;;;;5018000;28;45482;-58
2023/03/31 06:26:14;;;;;;;;;6.33;4.33;;;;;;;;5010539;28;45522;-58
2023/03/31 06:28:40;;;;;;;;;9.00;6.00;;;;;;;;5012862;28;46136;-58
2023/03/31 06:31:18;;;;;;;;;7.33;5.67;;;;;;;;5017728;28;45793;-58
2023/03/31 06:33:43;;;;;;;;;7.67;6.67;;;;;;;;5010017;28;45606;-58
2023/03/31 06:36:09;;;;;;;;;9.00;4.00;;;;;;;;5010658;28;45404;-58
2023/03/31 06:38:35;;;;;;;;;8.00;5.00;;;;;;;;5007078;28;46685;-58
2023/03/31 06:41:01;;;;;;;;;8.00;6.00;;;;;;;;5015114;28;45419;-58
2023/03/31 06:43:26;;;;;;;;;12.67;6.00;;;;;;;;5017961;28;45171;-56
2023/03/31 06:45:52;;;;;;;;;5.00;3.00;;;;;;;;5016547;28;45280;-56
2023/03/31 06:48:18;;;;;;;;;16.00;6.00;;;;;;;;5016256;28;47348;-57
2023/03/31 06:50:43;;;;;;;;;7.67;4.33;;;;;;;;5008398;28;45446;-57
2023/03/31 06:53:08;;;;;;;;;3.00;3.00;;;;;;;;5010284;28;45360;-57
2023/03/31 06:55:33;;;;;;;;;7.00;7.00;;;;;;;;5015915;28;45459;-57
2023/03/31 06:57:59;;;;;;;;;7.00;4.67;;;;;;;;5012839;28;46344;-57
2023/03/31 07:00:25;;;;;;;;;11.33;5.33;;;;;;;;5000706;28;45309;-57
2023/03/31 07:02:51;;;;;;;;;5.00;4.67;;;;;;;;5011575;28;45473;-57
2023/03/31 07:05:17;;;;;;;;;7.00;5.67;;;;;;;;5015345;28;46241;-57
2023/03/31 07:07:42;;;;;;;;;7.00;5.67;;;;;;;;5008611;28;46194;-57
2023/03/31 07:10:07;;;;;;;;;5.00;4.00;;;;;;;;5016734;28;45338;-57
2023/03/31 07:12:33;;;;;;;;;8.00;3.00;;;;;;;;5013794;28;45710;-57
2023/03/31 07:14:58;;;;;;;;;6.00;4.33;;;;;;;;5015029;28;45459;-57
2023/03/31 07:17:24;;;;;;;;;6.33;4.00;;;;;;;;5002999;28;45457;-57
2023/03/31 07:19:49;;;;;;;;;8.00;5.00;;;;;;;;5006318;28;45444;-57
2023/03/31 07:22:14;;;;;;;;;10.67;4.00;;;;;;;;5008482;28;45552;-57
2023/03/31 07:24:40;;;;;;;;;4.33;3.00;;;;;;;;5010790;28;45677;-57
2023/03/31 07:27:05;;;;;;;;;8.33;3.00;;;;;;;;5013358;28;46162;-57
2023/03/31 07:29:30;;;;;;;;;7.33;2.67;;;;;;;;5008208;28;45186;-57
2023/03/31 07:31:55;;;;;;;;;6.67;2.33;;;;;;;;5019819;28;45506;-57
2023/03/31 07:34:20;;;;;;;;;6.33;3.00;;;;;;;;5013931;28;45182;-56
2023/03/31 07:36:46;;;;;;;;;6.33;3.33;;;;;;;;5013249;28;46267;-57
2023/03/31 07:39:11;;;;;;;;;5.00;2.33;;;;;;;;5013050;28;45706;-57
2023/03/31 07:41:36;;;;;;;;;6.00;3.00;;;;;;;;5014036;28;45539;-57
2023/03/31 07:44:01;;;;;;;;;8.67;3.00;;;;;;;;5015086;28;45470;-57
2023/03/31 07:46:27;;;;;;;;;6.67;2.67;;;;;;;;5020059;28;45358;-57
2023/03/31 07:48:53;;;;;;;;;6.67;3.67;;;;;;;;5015752;28;45306;-57
2023/03/31 07:51:20;;;;;;;;;4.33;3.67;;;;;;;;4999598;28;45440;-57
2023/03/31 07:53:48;;;;;;;;;9.00;3.33;;;;;;;;5017872;28;45357;-57
2023/03/31 07:56:13;;;;;;;;;3.67;2.00;;;;;;;;5019552;28;46907;-58
2023/03/31 07:58:38;;;;;;;;;4.67;2.00;;;;;;;;5014691;28;45435;-57
2023/03/31 08:01:03;;;;;;;;;6.67;3.00;;;;;;;;5001896;28;45386;-57
2023/03/31 08:03:30;;;;;;;;;4.00;1.67;;;;;;;;5017757;28;45820;-58
2023/03/31 08:05:55;;;;;;;;;4.67;2.67;;;;;;;;5019376;28;46152;-57
2023/03/31 08:08:21;;;;;;;;;4.67;3.00;;;;;;;;5019154;28;45408;-57
2023/03/31 08:10:46;;;;;;;;;5.00;2.33;;;;;;;;5019213;28;45398;-57
2023/03/31 08:13:12;;;;;;;;;7.33;1.00;;;;;;;;5016675;28;45595;-57
2023/03/31 08:15:37;;;;;;;;;5.33;3.00;;;;;;;;4997179;28;46485;-57
2023/03/31 08:18:03;;;;;;;;;3.00;1.67;;;;;;;;5018397;28;45277;-58
2023/03/31 08:20:28;;;;;;;;;2.67;1.67;;;;;;;;5017390;28;45309;-57
2023/03/31 08:22:53;;;;;;;;;7.33;4.33;;;;;;;;5017305;28;45459;-57
2023/03/31 08:25:20;;;;;;;;;4.00;3.00;;;;;;;;5012807;28;45519;-57
2023/03/31 08:27:47;;;;;;;;;4.00;1.67;;;;;;;;5015942;28;45448;-57
2023/03/31 08:30:13;;;;;;;;;5.67;3.67;;;;;;;;5018966;28;45577;-58
2023/03/31 08:32:38;;;;;;;;;7.67;2.67;;;;;;;;5017825;28;45325;-58
2023/03/31 08:35:03;;;;;;;;;1.33;1.33;;;;;;;;4995674;28;46093;-58
2023/03/31 08:37:28;;;;;;;;;9.67;2.00;;;;;;;;5014791;28;45395;-58
2023/03/31 08:39:54;;;;;;;;;8.00;3.00;;;;;;;;5013471;28;45303;-58
2023/03/31 08:42:35;;;;;;;;;3.00;3.00;;;;;;;;5000460;28;45656;-58
2023/03/31 08:45:05;;;;;;;;;5.00;2.00;;;;;;;;5016583;28;46090;-58
2023/03/31 08:47:33;;;;;;;;;5.00;2.33;;;;;;;;5020055;28;45776;-58
2023/03/31 08:50:02;;;;;;;;;16.67;6.00;;;;;;;;5020241;28;45319;-58
2023/03/31 08:52:35;;;;;;;;;3.00;3.00;;;;;;;;5019692;28;45739;-58
2023/03/31 08:55:03;;;;;;;;;3.00;3.00;;;;;;;;5017334;28;47132;-58
2023/03/31 08:57:31;;;;;;;;;6.67;1.67;;;;;;;;5013887;28;45494;-58
2023/03/31 08:59:57;;;;;;;;;5.67;3.00;;;;;;;;4996139;28;45896;-58
2023/03/31 09:02:25;;;;;;;;;4.67;3.67;;;;;;;;5016342;28;45602;-58
2023/03/31 09:04:59;;;;;;;;;3.00;1.00;;;;;;;;5015740;28;46333;-58
2023/03/31 09:07:34;;;;;;;;;7.00;1.00;;;;;;;;5015564;28;45485;-58
2023/03/31 09:10:08;;;;;;;;;4.00;2.00;;;;;;;;5018718;28;45460;-58
2023/03/31 09:12:33;;;;;;;;;5.67;3.00;;;;;;;;5018926;28;45562;-58
2023/03/31 09:15:05;;;;;;;;;5.67;2.33;;;;;;;;5016082;28;46255;-58
2023/03/31 09:17:33;;;;;;;;;5.67;1.00;;;;;;;;5013981;28;45424;-58
2023/03/31 09:20:06;;;;;;;;;6.50;2.00;;;;;;;;5017315;28;45300;-58
2023/03/31 09:22:33;;;;;;;;;3.00;2.00;;;;;;;;5019096;28;45377;-58
2023/03/31 09:25:14;;;;;;;;;6.33;2.33;;;;;;;;5019018;28;45349;-58
2023/03/31 09:27:41;;;;;;;;;5.00;2.00;;;;;;;;5018821;28;45414;-58
2023/03/31 09:30:14;;;;;;;;;2.33;2.33;;;;;;;;5018210;28;45499;-58
2023/03/31 09:32:40;;;;;;;;;5.00;1.00;;;;;;;;5018630;28;45431;-58
2023/03/31 09:35:14;;;;;;;;;3.00;1.67;;;;;;;;5018669;28;46260;-58
2023/03/31 09:37:39;;;;;;;;;3.33;2.00;;;;;;;;4996540;28;45366;-58
2023/03/31 09:40:06;;;;;;;;;6.00;2.33;;;;;;;;5009035;28;45666;-58
2023/03/31 09:42:32;;;;;;;;;0.67;0.67;;;;;;;;5007287;28;45529;-58
2023/03/31 09:44:57;;;;;;;;;3.00;1.00;;;;;;;;5011087;28;45467;-58
2023/03/31 09:47:26;;;;;;;;;6.67;1.67;;;;;;;;5016797;28;45512;-58
2023/03/31 09:49:51;;;;;;;;;10.00;1.33;;;;;;;;5012598;28;45487;-58
2023/03/31 09:52:19;;;;;;;;;3.00;3.00;;;;;;;;5012554;28;45430;-58
2023/03/31 09:54:50;;;;;;;;;4.33;0.33;;;;;;;;5012439;28;45659;-58
2023/03/31 09:57:22;;;;;;;;;4.67;2.00;;;;;;;;5013854;28;45440;-58
2023/03/31 09:59:50;;;;;;;;;6.67;3.00;;;;;;;;5017036;28;45432;-58
2023/03/31 10:02:30;;;;;;;;;3.00;3.00;;;;;;;;5011919;28;45503;-59
2023/03/31 10:04:56;;;;;;;;;3.00;3.00;;;;;;;;5011840;28;46543;-57
2023/03/31 10:07:23;;;;;;;;;6.00;1.00;;;;;;;;5016436;28;45393;-56
2023/03/31 10:09:48;;;;;;;;;7.00;1.00;;;;;;;;5013969;28;45812;-58
2023/03/31 10:12:23;;;;;;;;;3.67;1.33;;;;;;;;4999889;28;45497;-58
2023/03/31 10:14:49;;;;;;;;;5.33;2.33;;;;;;;;5011802;28;46875;-58
2023/03/31 10:17:16;;;;;;;;;2.00;2.00;;;;;;;;4999769;28;45464;-59
2023/03/31 10:19:52;;;;;;;;;3.00;3.00;;;;;;;;5017727;28;45368;-59
2023/03/31 10:22:28;;;;;;;;;1.67;1.67;;;;;;;;5010066;28;45278;-60
2023/03/31 10:24:53;;;;;;;;;2.33;1.67;;;;;;;;5017890;28;46688;-60
2023/03/31 10:27:28;;;;;;;;;4.00;1.00;;;;;;;;4990941;28;45423;-60
2023/03/31 10:29:58;;;;;;;;;3.33;2.00;;;;;;;;5017829;28;45449;-60
2023/03/31 10:32:27;;;;;;;;;2.67;2.00;;;;;;;;5017926;28;45456;-60
2023/03/31 10:34:53;;;;;;;;;3.33;1.00;;;;;;;;5013637;28;46342;-59
2023/03/31 10:37:21;;;;;;;;;1.00;1.00;;;;;;;;5017972;28;45848;-59
2023/03/31 10:39:47;;;;;;;;;2.00;1.00;;;;;;;;5014424;28;45551;-59
2023/03/31 10:42:21;;;;;;;;;2.33;1.00;;;;;;;;5015396;28;45613;-59
2023/03/31 10:44:47;;;;;;;;;2.33;1.00;;;;;;;;5015445;28;46194;-55
2023/03/31 10:47:12;;;;;;;;;2.00;2.00;;;;;;;;5018161;28;45317;-58
2023/03/31 10:49:38;;;;;;;;;1.25;1.00;;;;;;;;5013008;28;45330;-57
2023/03/31 10:52:13;;;;;;;;;3.00;1.67;;;;;;;;4998830;28;45333;-57
2023/03/31 10:54:44;;;;;;;;;7.00;4.00;;;;;;;;5017698;28;46324;-57
2023/03/31 10:57:10;;;;;;;;;2.33;2.00;;;;;;;;5005933;28;45472;-55
2023/03/31 10:59:57;;;;;;;;;6.00;2.33;;;;;;;;5015140;28;45463;-55
2023/03/31 11:02:41;;;;;;;;;2.00;2.00;;;;;;;;5021253;28;45724;-55
2023/03/31 11:05:09;;;;;;;;;2.33;1.33;;;;;;;;5006501;28;45298;-56
2023/03/31 11:07:34;;;;;;;;;3.33;2.33;;;;;;;;5019813;28;45304;-55
2023/03/31 11:10:18;;;;;;;;;0.50;0.50;;;;;;;;5013077;28;45459;-55
2023/03/31 11:12:50;;;;;;;;;1.00;1.00;;;;;;;;5022081;28;45777;-55
2023/03/31 11:15:39;;;;;;;;;6.00;3.00;;;;;;;;5007006;28;47090;-55
2023/03/31 11:18:10;;;;;;;;;2.33;0.33;;;;;;;;5012020;28;45590;-55
2023/03/31 11:20:54;;;;;;;;;0.33;0.00;;;;;;;;5015896;28;45558;-55
2023/03/31 11:23:38;;;;;;;;;2.00;2.00;;;;;;;;5019851;28;45607;-55
2023/03/31 11:26:06;;;;;;;;;5.00;2.00;;;;;;;;5001162;28;46078;-55
2023/03/31 11:28:52;;;;;;;;;2.33;1.00;;;;;;;;5015250;28;45335;-55
2023/03/31 11:31:23;;;;;;;;;4.67;1.67;;;;;;;;4985580;28;45761;-55
2023/03/31 11:33:49;;;;;;;;;1.00;1.00;;;;;;;;5012423;28;45286;-55
2023/03/31 11:36:17;;;;;;;;;3.00;2.00;;;;;;;;5020265;28;46277;-54
2023/03/31 11:38:43;;;;;;;;;2.00;1.00;;;;;;;;4994327;28;45381;-56
2023/03/31 11:41:27;;;;;;;;;1.33;1.00;;;;;;;;5017513;28;45309;-56
2023/03/31 11:43:54;;;;;;;;;1.00;0.25;;;;;;;;5007795;28;45301;-55
2023/03/31 11:46:19;;;;;;;;;9.00;1.67;;;;;;;;5012598;28;46257;-54
2023/03/31 11:48:58;;;;;;;;;2.00;1.00;;;;;;;;5019987;28;45469;-54
2023/03/31 11:51:42;;;;;;;;;3.00;1.67;;;;;;;;5020361;28;45354;-53
2023/03/31 11:54:12;;;;;;;;;4.00;1.00;;;;;;;;5009511;28;45389;-57
2023/03/31 11:56:39;;;;;;;;;2.67;0.67;;;;;;;;5020477;28;45409;-57
2023/03/31 11:59:05;;;;;;;;;2.00;1.00;;;;;;;;5019616;28;45491;-53
2023/03/31 12:01:50;;;;;;;;;1.00;1.00;;;;;;;;5020271;28;45435;-57
2023/03/31 12:04:22;;;;;;;;;1.00;1.00;;;;;;;;5021909;28;45403;-57
2023/03/31 12:06:48;;;;;;;;;1.33;0.00;;;;;;;;5019845;28;46047;-56
2023/03/31 12:09:20;;;;;;;;;1.00;0.67;;;;;;;;5020336;28;45374;-57
2023/03/31 12:12:09;;;;;;;;;1.33;1.00;;;;;;;;5019592;28;45484;-58
2023/03/31 12:14:39;;;;;;;;;1.00;1.00;;;;;;;;4998664;28;48310;-58
2023/03/31 12:17:11;;;;;;;;;4.00;1.00;;;;;;;;5011112;28;46341;-58
2023/03/31 12:19:57;;;;;;;;;0.00;0.00;;;;;;;;5003396;28;45875;-59
2023/03/31 12:22:33;;;;;;;;;1.25;1.00;;;;;;;;5011130;28;45440;-58
2023/03/31 12:24:58;;;;;;;;;3.00;1.00;;;;;;;;5004970;28;45818;-58
2023/03/31 12:27:31;;;;;;;;;2.00;1.00;;;;;;;;5017407;28;45415;-58
2023/03/31 12:29:59;;;;;;;;;1.00;0.33;;;;;;;;5019861;28;45420;-58
2023/03/31 12:32:31;;;;;;;;;1.33;1.33;;;;;;;;5019510;28;45348;-58
2023/03/31 12:34:59;;;;;;;;;3.33;1.00;;;;;;;;5016833;28;45507;-58
2023/03/31 12:37:27;;;;;;;;;2.67;1.00;;;;;;;;5014633;28;45507;-58
2023/03/31 12:40:06;;;;;;;;;2.67;0.33;;;;;;;;5018199;28;45349;-58
2023/03/31 12:42:51;;;;;;;;;1.00;1.00;;;;;;;;5019790;28;45367;-58
2023/03/31 12:45:19;;;;;;;;;2.33;0.67;;;;;;;;5016575;28;45579;-61
2023/03/31 12:47:48;;;;;;;;;1.33;0.00;;;;;;;;5019181;28;46832;-58
2023/03/31 12:50:22;;;;;;;;;0.00;0.00;;;;;;;;5007507;28;45338;-58
2023/03/31 12:52:53;;;;;;;;;2.00;0.00;;;;;;;;5014523;28;45940;-58
2023/03/31 12:55:41;;;;;;;;;2.00;0.67;;;;;;;;5008400;28;45392;-58
2023/03/31 12:58:28;;;;;;;;;2.00;1.00;;;;;;;;4997814;28;46400;-59
2023/03/31 13:01:00;;;;;;;;;0.00;0.00;;;;;;;;5010168;28;45271;-58
2023/03/31 13:03:35;;;;;;;;;0.00;0.00;;;;;;;;5004175;28;45447;-58
2023/03/31 13:06:03;;;;;;;;;1.00;0.00;;;;;;;;5015781;28;45503;-58
2023/03/31 13:08:47;;;;;;;;;1.00;1.00;;;;;;;;5009807;28;46822;-58
2023/03/31 13:11:12;;;;;;;;;1.33;0.00;;;;;;;;5011772;28;45384;-58
2023/03/31 13:13:43;;;;;;;;;1.33;0.00;;;;;;;;5009317;28;45412;-58
2023/03/31 13:16:08;;;;;;;;;2.33;0.00;;;;;;;;5014682;28;45269;-59
2023/03/31 13:18:33;;;;;;;;;4.00;0.00;;;;;;;;5011446;28;45352;-61
2023/03/31 13:21:03;;;;;;;;;2.00;0.00;;;;;;;;5012655;28;45626;-60
2023/03/31 13:23:31;;;;;;;;;0.00;0.00;;;;;;;;5003463;28;45498;-57
2023/03/31 13:25:57;;;;;;;;;2.00;1.00;;;;;;;;5015736;28;45495;-57
2023/03/31 13:28:23;;;;;;;;;1.33;1.00;;;;;;;;5015992;28;46144;-57
2023/03/31 13:31:00;;;;;;;;;1.00;0.33;;;;;;;;5012936;28;45519;-58
2023/03/31 13:33:41;;;;;;;;;2.00;0.00;;;;;;;;5012249;28;45342;-57
2023/03/31 13:36:06;;;;;;;;;2.67;0.33;;;;;;;;5008214;28;45559;-58
2023/03/31 13:38:49;;;;;;;;;1.00;1.00;;;;;;;;5011341;28;46359;-57
2023/03/31 13:41:33;;;;;;;;;1.67;1.00;;;;;;;;5011962;28;45358;-57
2023/03/31 13:43:58;;;;;;;;;2.00;0.67;;;;;;;;5010432;28;45493;-57
2023/03/31 13:46:35;;;;;;;;;4.33;0.67;;;;;;;;5016349;28;45463;-57
2023/03/31 13:49:01;;;;;;;;;0.00;0.00;;;;;;;;4996871;28;47780;-58
2023/03/31 13:51:32;;;;;;;;;1.33;0.33;;;;;;;;5017155;28;45560;-58
2023/03/31 13:54:16;;;;;;;;;1.67;0.33;;;;;;;;5005141;28;45561;-57
2023/03/31 13:56:44;;;;;;;;;2.33;1.67;;;;;;;;5007684;28;45350;-57
2023/03/31 13:59:29;;;;;;;;;0.67;0.67;;;;;;;;4992270;28;46130;-57
2023/03/31 14:02:26;;;;;;;;;0.33;0.33;;;;;;;;5011626;28;45434;-57
2023/03/31 14:04:51;;;;;;;;;0.00;0.00;;;;;;;;4978383;28;45474;-57
2023/03/31 14:07:19;;;;;;;;;0.00;0.00;;;;;;;;5008267;28;45447;-56
2023/03/31 14:09:53;;;;;;;;;1.00;1.00;;;;;;;;5006624;28;47353;-57
2023/03/31 14:12:20;;;;;;;;;1.00;0.00;;;;;;;;5009650;28;45453;-57
2023/03/31 14:14:46;;;;;;;;;0.00;0.00;;;;;;;;5010449;28;45604;-58
2023/03/31 14:17:11;;;;;;;;;0.00;0.00;;;;;;;;5016898;28;46019;-57
2023/03/31 14:19:55;;;;;;;;;1.00;0.00;;;;;;;;5008736;28;47129;-57
2023/03/31 14:22:40;;;;;;;;;0.00;0.00;;;;;;;;5008054;28;45329;-58
2023/03/31 14:25:20;;;;;;;;;0.00;0.00;;;;;;;;5015791;28;45471;-58
2023/03/31 14:27:45;;;;;;;;;0.00;0.00;;;;;;;;5015856;28;45755;-57
2023/03/31 14:30:11;;;;;;;;;2.00;0.00;;;;;;;;5011743;28;45747;-58
2023/03/31 14:32:37;;;;;;;;;0.00;0.00;;;;;;;;5010329;28;45472;-58
2023/03/31 14:35:22;;;;;;;;;0.00;0.00;;;;;;;;5015046;28;45664;-58
2023/03/31 14:37:48;;;;;;;;;2.00;0.67;;;;;;;;5016953;28;45418;-58
2023/03/31 14:40:15;;;;;;;;;1.00;1.00;;;;;;;;4975253;28;47040;-57
2023/03/31 14:42:41;;;;;;;;;0.00;0.00;;;;;;;;5012501;28;45548;-57
2023/03/31 14:45:23;;;;;;;;;0.33;0.33;;;;;;;;5013296;28;45552;-58
2023/03/31 14:47:56;;;;;;;;;3.00;1.33;;;;;;;;5008808;28;45483;-57
2023/03/31 14:50:21;;;;;;;;;2.00;0.67;;;;;;;;5014745;28;45783;-58
2023/03/31 14:52:48;;;;;;;;;1.33;1.00;;;;;;;;5016884;28;45741;-58
2023/03/31 14:55:14;;;;;;;;;0.00;0.00;;;;;;;;5015526;28;45469;-58
2023/03/31 14:57:40;;;;;;;;;0.33;0.00;;;;;;;;5017560;28;45462;-58
2023/03/31 15:00:07;;;;;;;;;0.67;0.33;;;;;;;;5016334;28;45368;-57
2023/03/31 15:02:36;;;;;;;;;1.00;1.00;;;;;;;;4999385;28;45581;-58
2023/03/31 15:05:04;;;;;;;;;1.67;0.33;;;;;;;;5011061;28;45480;-58
2023/03/31 15:07:30;;;;;;;;;4.33;1.00;;;;;;;;5016562;28;45426;-57
2023/03/31 15:09:55;;;;;;;;;0.00;0.00;;;;;;;;4998130;28;47156;-58
2023/03/31 15:12:22;;;;;;;;;2.00;0.00;;;;;;;;5012873;28;45452;-58
2023/03/31 15:14:52;;;;;;;;;0.00;0.00;;;;;;;;5005151;28;45470;-59
2023/03/31 15:17:23;;;;;;;;;1.00;1.00;;;;;;;;4999438;28;45366;-59
2023/03/31 15:19:55;;;;;;;;;0.00;0.00;;;;;;;;5012174;28;46244;-59
2023/03/31 15:22:21;;;;;;;;;2.00;0.67;;;;;;;;5011222;28;45469;-58
2023/03/31 15:24:48;;;;;;;;;0.00;0.00;;;;;;;;5006403;28;45527;-58
2023/03/31 15:27:16;;;;;;;;;4.33;0.00;;;;;;;;5010660;28;45966;-59
2023/03/31 15:29:47;;;;;;;;;0.00;0.00;;;;;;;;4996601;28;48825;-59
2023/03/31 15:32:14;;;;;;;;;1.00;1.00;;;;;;;;5012496;28;45440;-59
2023/03/31 15:34:42;;;;;;;;;0.00;0.00;;;;;;;;5008094;28;45392;-59
2023/03/31 15:37:07;;;;;;;;;1.33;0.00;;;;;;;;5015284;28;45434;-58
2023/03/31 15:39:34;;;;;;;;;2.33;1.00;;;;;;;;4994728;28;46945;-59
2023/03/31 15:42:01;;;;;;;;;1.00;1.00;;;;;;;;5015020;28;45522;-61
2023/03/31 15:44:27;;;;;;;;;1.00;0.00;;;;;;;;5017087;28;45416;-58
2023/03/31 15:46:59;;;;;;;;;0.00;0.00;;;;;;;;5018454;28;45475;-58
2023/03/31 15:49:26;;;;;;;;;0.00;0.00;;;;;;;;5013887;28;46155;-59
2023/03/31 15:51:55;;;;;;;;;7.00;1.00;;;;;;;;5017915;28;46094;-58
2023/03/31 15:54:38;;;;;;;;;3.33;0.00;;;;;;;;5019590;28;45377;-58
2023/03/31 15:57:04;;;;;;;;;1.00;1.00;;;;;;;;5019701;28;45504;-59
2023/03/31 15:59:30;;;;;;;;;1.00;0.00;;;;;;;;5018577;28;46226;-59
2023/03/31 16:01:58;;;;;;;;;0.67;0.67;;;;;;;;5020988;28;45349;-58
2023/03/31 16:04:28;;;;;;;;;0.33;0.33;;;;;;;;5014872;28;45439;-58
2023/03/31 16:07:00;;;;;;;;;0.00;0.00;;;;;;;;5014450;28;45516;-57
2023/03/31 16:09:28;;;;;;;;;0.00;0.00;;;;;;;;5002277;28;46160;-57
2023/03/31 16:11:55;;;;;;;;;2.00;0.00;;;;;;;;5014828;28;45441;-59
2023/03/31 16:14:23;;;;;;;;;2.00;0.00;;;;;;;;5016861;28;45423;-58
2023/03/31 16:16:50;;;;;;;;;1.00;0.00;;;;;;;;5015788;28;45407;-59
2023/03/31 16:19:16;;;;;;;;;0.33;0.33;;;;;;;;5016307;28;45431;-58
2023/03/31 16:21:49;;;;;;;;;0.00;0.00;;;;;;;;5015864;28;45499;-58
2023/03/31 16:24:14;;;;;;;;;0.00;0.00;;;;;;;;5013661;28;45451;-59
2023/03/31 16:26:40;;;;;;;;;0.67;0.00;;;;;;;;5019352;28;45431;-59
2023/03/31 16:29:05;;;;;;;;;0.00;0.00;;;;;;;;5011584;28;46290;-58
2023/03/31 16:31:35;;;;;;;;;2.00;1.00;;;;;;;;5007368;28;45479;-58
2023/03/31 16:34:01;;;;;;;;;0.67;0.67;;;;;;;;5005570;28;45441;-59
2023/03/31 16:36:26;;;;;;;;;3.00;0.00;;;;;;;;5001095;28;45735;-58
2023/03/31 16:38:52;;;;;;;;;1.00;0.00;;;;;;;;5014218;28;45566;-56
2023/03/31 16:41:18;;;;;;;;;0.00;0.00;;;;;;;;5010816;28;45353;-57
2023/03/31 16:43:44;;;;;;;;;3.00;1.67;;;;;;;;5015767;28;45452;-58
2023/03/31 16:46:09;;;;;;;;;1.00;1.00;;;;;;;;5018911;28;45436;-59
2023/03/31 16:48:34;;;;;;;;;1.00;1.00;;;;;;;;5009992;28;45385;-58
2023/03/31 16:51:00;;;;;;;;;1.33;0.33;;;;;;;;5010197;28;45467;-58
2023/03/31 16:53:27;;;;;;;;;1.00;1.00;;;;;;;;5009752;28;45517;-58
2023/03/31 16:55:53;;;;;;;;;1.00;1.00;;;;;;;;5019740;28;45731;-57
2023/03/31 16:58:18;;;;;;;;;1.33;0.00;;;;;;;;4990469;28;47077;-57
2023/03/31 17:00:44;;;;;;;;;0.67;0.00;;;;;;;;4997919;28;45857;-58
2023/03/31 17:03:10;;;;;;;;;1.00;1.00;;;;;;;;5009831;28;45491;-57
2023/03/31 17:05:40;;;;;;;;;3.33;1.00;;;;;;;;5011051;28;45464;-58
2023/03/31 17:08:07;;;;;;;;;1.00;1.00;;;;;;;;5021247;28;47055;-57
2023/03/31 17:10:32;;;;;;;;;1.00;1.00;;;;;;;;5011103;28;45404;-57
2023/03/31 17:12:57;;;;;;;;;1.00;1.00;;;;;;;;5002142;28;45711;-57
2023/03/31 17:15:23;;;;;;;;;0.33;0.33;;;;;;;;5016542;28;45763;-57
2023/03/31 17:17:48;;;;;;;;;4.33;2.33;;;;;;;;5014445;28;46874;-58
2023/03/31 17:20:13;;;;;;;;;3.00;1.33;;;;;;;;5015381;28;45341;-58
2023/03/31 17:22:39;;;;;;;;;1.67;1.67;;;;;;;;5019268;28;45340;-58
2023/03/31 17:25:06;;;;;;;;;3.00;2.67;;;;;;;;5010216;28;45535;-58
2023/03/31 17:27:32;;;;;;;;;5.33;1.67;;;;;;;;5017677;28;46351;-58
2023/03/31 17:29:57;;;;;;;;;1.00;0.67;;;;;;;;5022335;28;45518;-58
2023/03/31 17:32:22;;;;;;;;;1.67;0.67;;;;;;;;5015408;28;45413;-58
2023/03/31 17:34:48;;;;;;;;;1.33;0.00;;;;;;;;5015746;28;45384;-58
2023/03/31 17:37:15;;;;;;;;;0.67;0.67;;;;;;;;5021470;28;45541;-58
2023/03/31 17:39:41;;;;;;;;;1.67;1.67;;;;;;;;4996171;28;45461;-58
2023/03/31 17:42:07;;;;;;;;;2.67;1.67;;;;;;;;5024329;28;45426;-58
2023/03/31 17:44:32;;;;;;;;;3.00;0.67;;;;;;;;5015851;28;46270;-58
2023/03/31 17:46:57;;;;;;;;;4.00;1.00;;;;;;;;5001010;28;47294;-58
2023/03/31 17:49:23;;;;;;;;;0.00;0.00;;;;;;;;5014359;28;45274;-58
2023/03/31 17:51:49;;;;;;;;;1.67;0.67;;;;;;;;5015947;28;45353;-58
2023/03/31 17:54:15;;;;;;;;;1.67;0.33;;;;;;;;4995866;28;45677;-58
2023/03/31 17:56:40;;;;;;;;;1.00;0.67;;;;;;;;5022796;28;46240;-58
2023/03/31 17:59:06;;;;;;;;;2.00;0.67;;;;;;;;5012433;28;45385;-58
2023/03/31 18:01:31;;;;;;;;;4.67;1.67;;;;;;;;5016216;28;45739;-58
2023/03/31 18:03:56;;;;;;;;;3.33;2.33;;;;;;;;5015969;28;45358;-58
2023/03/31 18:06:22;;;;;;;;;1.67;1.67;;;;;;;;4993862;28;46496;-58
2023/03/31 18:08:47;;;;;;;;;1.67;1.67;;;;;;;;5012453;28;45575;-58
2023/03/31 18:11:13;;;;;;;;;2.00;2.00;;;;;;;;5020562;28;45497;-58
2023/03/31 18:13:39;;;;;;;;;2.67;1.33;;;;;;;;4992076;28;45567;-60
2023/03/31 18:16:07;;;;;;;;;4.00;1.67;;;;;;;;5016401;28;46123;-62
2023/03/31 18:18:33;;;;;;;;;2.00;0.67;;;;;;;;5010354;28;45313;-58
2023/03/31 18:21:02;;;;;;;;;1.33;1.33;;;;;;;;5018382;28;45522;-59
2023/03/31 18:23:27;;;;;;;;;2.67;2.67;;;;;;;;5008323;28;45483;-60
2023/03/31 18:25:52;;;;;;;;;2.33;1.33;;;;;;;;4998229;28;46020;-58
2023/03/31 18:28:19;;;;;;;;;3.33;0.67;;;;;;;;5007954;28;45460;-59
2023/03/31 18:30:46;;;;;;;;;3.00;2.00;;;;;;;;5018987;28;45414;-58
2023/03/31 18:33:11;;;;;;;;;5.67;2.67;;;;;;;;5019629;28;45372;-59
2023/03/31 18:35:36;;;;;;;;;1.33;1.33;;;;;;;;5008344;28;46909;-59
2023/03/31 18:38:02;;;;;;;;;5.67;3.00;;;;;;;;5007157;28;45389;-58
2023/03/31 18:40:27;;;;;;;;;3.00;2.67;;;;;;;;5005605;28;45377;-59
2023/03/31 18:42:52;;;;;;;;;5.33;2.33;;;;;;;;5016017;28;45505;-59
2023/03/31 18:45:17;;;;;;;;;3.00;1.33;;;;;;;;5004300;28;46366;-59
2023/03/31 18:47:43;;;;;;;;;7.33;1.33;;;;;;;;4991957;28;45810;-59
2023/03/31 18:50:08;;;;;;;;;2.33;0.00;;;;;;;;5008967;28;45633;-59
2023/03/31 18:52:35;;;;;;;;;1.67;1.67;;;;;;;;5007423;28;45777;-59
2023/03/31 18:55:00;;;;;;;;;3.67;1.33;;;;;;;;4993263;28;47192;-58
2023/03/31 18:57:25;;;;;;;;;2.67;1.33;;;;;;;;5013459;28;45329;-59
2023/03/31 18:59:50;;;;;;;;;1.00;0.67;;;;;;;;5011018;28;45574;-59
2023/03/31 19:02:16;;;;;;;;;2.33;0.67;;;;;;;;5009079;28;45666;-59
2023/03/31 19:04:42;;;;;;;;;0.67;0.67;;;;;;;;5000333;28;47355;-59
2023/03/31 19:07:07;;;;;;;;;1.67;1.33;;;;;;;;5009517;28;45505;-62
2023/03/31 19:09:32;;;;;;;;;3.00;0.67;;;;;;;;4987619;28;45520;-59
2023/03/31 19:11:58;;;;;;;;;2.67;1.67;;;;;;;;5005622;28;45743;-57
2023/03/31 19:14:23;;;;;;;;;4.00;2.00;;;;;;;;5016366;28;46265;-57
2023/03/31 19:16:48;;;;;;;;;3.00;1.33;;;;;;;;5011678;28;45446;-56
2023/03/31 19:19:14;;;;;;;;;2.00;1.67;;;;;;;;5010887;28;45515;-57
2023/03/31 19:21:40;;;;;;;;;2.33;1.33;;;;;;;;5013729;28;45898;-57
2023/03/31 19:24:05;;;;;;;;;3.00;1.00;;;;;;;;5015405;28;46012;-61
2023/03/31 19:26:30;;;;;;;;;2.67;1.00;;;;;;;;5013588;28;45482;-60
2023/03/31 19:28:55;;;;;;;;;3.00;2.67;;;;;;;;5011650;28;45482;-59
2023/03/31 19:31:20;;;;;;;;;0.33;0.33;;;;;;;;5012723;28;45898;-59
2023/03/31 19:33:46;;;;;;;;;1.00;1.00;;;;;;;;5019824;28;46117;-59
2023/03/31 19:36:12;;;;;;;;;2.00;1.33;;;;;;;;5000991;28;46026;-59
2023/03/31 19:38:37;;;;;;;;;2.00;1.00;;;;;;;;5016566;28;45429;-59
2023/03/31 19:41:03;;;;;;;;;3.33;2.00;;;;;;;;5016493;28;45562;-59
2023/03/31 19:43:28;;;;;;;;;4.33;1.00;;;;;;;;5017469;28;46130;-59
2023/03/31 19:45:55;;;;;;;;;3.33;2.00;;;;;;;;5019443;28;45329;-60
2023/03/31 19:48:22;;;;;;;;;1.33;1.33;;;;;;;;5012214;28;45475;-59
2023/03/31 19:50:51;;;;;;;;;2.67;1.33;;;;;;;;5014847;28;45436;-59